ンジャメナ の空港の天気 - METARとTAF

ンジャメナ国際空港 ( FTTJ / NDJ ) - チャド ンジャメナ
飛行場実況気象(Metar)
観測時間10/20 05:00 WAT (10/20 04:00 UTC)
風向・風速南西 3m/s
視程8000m
天気現象
少しの雲 雲底高度 790m
気温24℃
湿度89%
気圧1010hPa
METARFTTJ 200400Z 23005KT 8000 FEW026 24/22 Q1010 NOSIG
過去の天気等 Google飛行場航空写真 Wunderground天気予報

過去48時間のMETAR

飛行場予報(TAF)
発表時間: 10/20 00:59 WAT (10/19 23:59 UTC)
予報対象時間: 20日1時 WAT ~ 21日7時 WAT
風向・風速南西 3m/s
視程10km以上
天気現象
少しの雲 雲底高度 910m
少しの積乱雲 雲底高度 1220m
20日3時 WAT ~ 20日5時 WAT に徐々に
なし
20日16時 WAT ~ 20日22時 WAT に一時的に
風向・風速不定 8m/s 瞬間風速 15m/s
視程2500m
天気現象雷雨
TAF FTTJ 192359Z 2000/2106 22006KT 9999 TS FEW030 FEW040CB
BECMG 2002/2004 NSC NSW
TEMPO 2015/2021 VRB15G30KT 2500 TSRA